sensor_id;sensor_type;location;lat;lon;timestamp;temperature;humidity
6536;DHT22;34330;52.08032700;5.40923460;2024-01-30T00:01:12;11.80;94.90
6536;DHT22;34330;52.08032700;5.40923460;2024-01-30T00:03:40;11.50;94.90
6536;DHT22;34330;52.08032700;5.40923460;2024-01-30T00:06:08;11.50;94.90
6536;DHT22;34330;52.08032700;5.40923460;2024-01-30T00:08:37;11.50;94.90
6536;DHT22;34330;52.08032700;5.40923460;2024-01-30T00:11:05;11.40;94.80
6536;DHT22;34330;52.08032700;5.40923460;2024-01-30T00:13:35;11.40;94.90
6536;DHT22;34330;52.08032700;5.40923460;2024-01-30T00:16:03;11.40;94.80
6536;DHT22;34330;52.08032700;5.40923460;2024-01-30T00:18:31;11.40;94.90
6536;DHT22;34330;52.08032700;5.40923460;2024-01-30T00:20:59;11.40;94.90
6536;DHT22;34330;52.08032700;5.40923460;2024-01-30T00:23:27;11.40;95.00
6536;DHT22;34330;52.08032700;5.40923460;2024-01-30T00:25:58;11.40;94.90
6536;DHT22;34330;52.08032700;5.40923460;2024-01-30T00:28:26;11.30;94.90
6536;DHT22;34330;52.08032700;5.40923460;2024-01-30T00:30:56;11.30;95.00
6536;DHT22;34330;52.08032700;5.40923460;2024-01-30T00:33:24;11.30;95.00
6536;DHT22;34330;52.08032700;5.40923460;2024-01-30T00:35:52;11.40;95.00
6536;DHT22;34330;52.08032700;5.40923460;2024-01-30T00:38:20;11.30;95.00
6536;DHT22;34330;52.08032700;5.40923460;2024-01-30T00:40:48;11.30;95.00
6536;DHT22;34330;52.08032700;5.40923460;2024-01-30T00:43:18;11.40;95.00
6536;DHT22;34330;52.08032700;5.40923460;2024-01-30T00:45:46;11.50;95.10
6536;DHT22;34330;52.08032700;5.40923460;2024-01-30T00:48:15;11.20;94.90
6536;DHT22;34330;52.08032700;5.40923460;2024-01-30T00:50:43;11.20;94.90
6536;DHT22;34330;52.08032700;5.40923460;2024-01-30T00:53:11;11.20;95.00
6536;DHT22;34330;52.08032700;5.40923460;2024-01-30T00:55:42;11.20;95.00
6536;DHT22;34330;52.08032700;5.40923460;2024-01-30T00:58:10;11.20;95.00
6536;DHT22;34330;52.08032700;5.40923460;2024-01-30T01:00:39;11.10;95.00
6536;DHT22;34330;52.08032700;5.40923460;2024-01-30T01:03:07;11.20;95.10
6536;DHT22;34330;52.08032700;5.40923460;2024-01-30T01:05:35;11.20;95.10
6536;DHT22;34330;52.08032700;5.40923460;2024-01-30T01:08:04;11.10;95.10
6536;DHT22;34330;52.08032700;5.40923460;2024-01-30T01:10:32;11.10;95.20
6536;DHT22;34330;52.08032700;5.40923460;2024-01-30T01:13:00;11.10;95.10
6536;DHT22;34330;52.08032700;5.40923460;2024-01-30T01:15:28;11.10;95.10
6536;DHT22;34330;52.08032700;5.40923460;2024-01-30T01:17:59;11.10;95.20
6536;DHT22;34330;52.08032700;5.40923460;2024-01-30T01:20:27;11.00;95.20
6536;DHT22;34330;52.08032700;5.40923460;2024-01-30T01:22:57;11.00;95.20
6536;DHT22;34330;52.08032700;5.40923460;2024-01-30T01:25:25;11.00;95.30
6536;DHT22;34330;52.08032700;5.40923460;2024-01-30T01:27:53;11.00;95.30
6536;DHT22;34330;52.08032700;5.40923460;2024-01-30T01:30:21;11.00;95.30
6536;DHT22;34330;52.08032700;5.40923460;2024-01-30T01:32:50;11.00;95.30
6536;DHT22;34330;52.08032700;5.40923460;2024-01-30T01:35:23;11.00;95.40
6536;DHT22;34330;52.08032700;5.40923460;2024-01-30T01:37:52;11.00;95.40
6536;DHT22;34330;52.08032700;5.40923460;2024-01-30T01:40:23;11.00;95.50
6536;DHT22;34330;52.08032700;5.40923460;2024-01-30T01:42:51;11.30;95.70
6536;DHT22;34330;52.08032700;5.40923460;2024-01-30T01:45:20;11.00;95.50
6536;DHT22;34330;52.08032700;5.40923460;2024-01-30T01:47:51;11.00;95.50
6536;DHT22;34330;52.08032700;5.40923460;2024-01-30T01:50:20;11.00;95.60
6536;DHT22;34330;52.08032700;5.40923460;2024-01-30T01:52:50;11.00;95.60
6536;DHT22;34330;52.08032700;5.40923460;2024-01-30T01:55:21;11.20;95.70
6536;DHT22;34330;52.08032700;5.40923460;2024-01-30T01:57:52;10.90;95.50
6536;DHT22;34330;52.08032700;5.40923460;2024-01-30T02:00:21;10.90;95.50
6536;DHT22;34330;52.08032700;5.40923460;2024-01-30T02:02:49;11.10;95.50
6536;DHT22;34330;52.08032700;5.40923460;2024-01-30T02:05:18;10.90;95.40
6536;DHT22;34330;52.08032700;5.40923460;2024-01-30T02:07:46;11.00;95.50
6536;DHT22;34330;52.08032700;5.40923460;2024-01-30T02:10:17;10.90;95.40
6536;DHT22;34330;52.08032700;5.40923460;2024-01-30T02:12:45;10.90;95.50
6536;DHT22;34330;52.08032700;5.40923460;2024-01-30T02:15:13;11.00;95.50
6536;DHT22;34330;52.08032700;5.40923460;2024-01-30T02:17:41;11.60;95.80
6536;DHT22;34330;52.08032700;5.40923460;2024-01-30T02:20:10;10.90;95.40
6536;DHT22;34330;52.08032700;5.40923460;2024-01-30T02:22:41;11.00;95.40
6536;DHT22;34330;52.08032700;5.40923460;2024-01-30T02:25:10;11.10;95.60
6536;DHT22;34330;52.08032700;5.40923460;2024-01-30T02:27:38;10.90;95.40
6536;DHT22;34330;52.08032700;5.40923460;2024-01-30T02:30:07;10.90;95.40
6536;DHT22;34330;52.08032700;5.40923460;2024-01-30T02:32:35;10.90;95.50
6536;DHT22;34330;52.08032700;5.40923460;2024-01-30T02:35:04;10.90;95.40
6536;DHT22;34330;52.08032700;5.40923460;2024-01-30T02:37:32;10.90;95.40
6536;DHT22;34330;52.08032700;5.40923460;2024-01-30T02:40:01;10.90;95.40
6536;DHT22;34330;52.08032700;5.40923460;2024-01-30T02:42:32;10.90;95.40
6536;DHT22;34330;52.08032700;5.40923460;2024-01-30T02:45:00;10.90;95.40
6536;DHT22;34330;52.08032700;5.40923460;2024-01-30T02:47:28;10.90;95.40
6536;DHT22;34330;52.08032700;5.40923460;2024-01-30T02:49:57;11.20;95.50
6536;DHT22;34330;52.08032700;5.40923460;2024-01-30T02:52:25;10.90;95.40
6536;DHT22;34330;52.08032700;5.40923460;2024-01-30T02:54:53;11.00;95.40
6536;DHT22;34330;52.08032700;5.40923460;2024-01-30T02:57:22;10.90;95.30
6536;DHT22;34330;52.08032700;5.40923460;2024-01-30T02:59:50;11.40;95.50
6536;DHT22;34330;52.08032700;5.40923460;2024-01-30T03:02:18;11.70;95.60
6536;DHT22;34330;52.08032700;5.40923460;2024-01-30T03:04:47;11.00;95.30
6536;DHT22;34330;52.08032700;5.40923460;2024-01-30T03:07:16;10.90;95.20
6536;DHT22;34330;52.08032700;5.40923460;2024-01-30T03:09:44;10.90;95.20
6536;DHT22;34330;52.08032700;5.40923460;2024-01-30T03:12:12;10.90;95.20
6536;DHT22;34330;52.08032700;5.40923460;2024-01-30T03:14:42;10.90;95.30
6536;DHT22;34330;52.08032700;5.40923460;2024-01-30T03:17:10;11.10;95.40
6536;DHT22;34330;52.08032700;5.40923460;2024-01-30T03:19:38;10.90;95.30
6536;DHT22;34330;52.08032700;5.40923460;2024-01-30T03:22:06;10.90;95.30
6536;DHT22;34330;52.08032700;5.40923460;2024-01-30T03:24:34;10.90;95.20
6536;DHT22;34330;52.08032700;5.40923460;2024-01-30T03:27:02;10.90;95.30
6536;DHT22;34330;52.08032700;5.40923460;2024-01-30T03:29:31;10.90;95.30
6536;DHT22;34330;52.08032700;5.40923460;2024-01-30T03:32:00;10.90;95.30
6536;DHT22;34330;52.08032700;5.40923460;2024-01-30T03:34:31;10.90;95.30
6536;DHT22;34330;52.08032700;5.40923460;2024-01-30T03:36:59;10.90;95.30
6536;DHT22;34330;52.08032700;5.40923460;2024-01-30T03:39:28;10.90;95.30
6536;DHT22;34330;52.08032700;5.40923460;2024-01-30T03:41:57;10.90;95.30
6536;DHT22;34330;52.08032700;5.40923460;2024-01-30T03:44:25;10.90;95.40
6536;DHT22;34330;52.08032700;5.40923460;2024-01-30T03:46:53;11.10;95.40
6536;DHT22;34330;52.08032700;5.40923460;2024-01-30T03:49:22;10.90;95.30
6536;DHT22;34330;52.08032700;5.40923460;2024-01-30T03:51:50;10.90;95.30
6536;DHT22;34330;52.08032700;5.40923460;2024-01-30T03:54:18;11.40;95.60
6536;DHT22;34330;52.08032700;5.40923460;2024-01-30T03:56:46;10.00;94.90
6536;DHT22;34330;52.08032700;5.40923460;2024-01-30T03:59:14;11.00;95.40
6536;DHT22;34330;52.08032700;5.40923460;2024-01-30T04:01:42;10.90;95.30
6536;DHT22;34330;52.08032700;5.40923460;2024-01-30T04:04:10;10.90;95.30
6536;DHT22;34330;52.08032700;5.40923460;2024-01-30T04:06:39;11.00;95.40
6536;DHT22;34330;52.08032700;5.40923460;2024-01-30T04:09:07;10.90;95.40
6536;DHT22;34330;52.08032700;5.40923460;2024-01-30T04:11:35;11.40;95.50
6536;DHT22;34330;52.08032700;5.40923460;2024-01-30T04:14:03;11.00;95.30
6536;DHT22;34330;52.08032700;5.40923460;2024-01-30T04:16:31;11.00;95.30
6536;DHT22;34330;52.08032700;5.40923460;2024-01-30T04:18:59;11.10;95.40
6536;DHT22;34330;52.08032700;5.40923460;2024-01-30T04:21:27;11.00;95.30
6536;DHT22;34330;52.08032700;5.40923460;2024-01-30T04:23:57;11.00;95.30
6536;DHT22;34330;52.08032700;5.40923460;2024-01-30T04:26:26;11.00;95.60
6536;DHT22;34330;52.08032700;5.40923460;2024-01-30T04:28:54;11.20;95.30
6536;DHT22;34330;52.08032700;5.40923460;2024-01-30T04:31:22;11.10;95.30
6536;DHT22;34330;52.08032700;5.40923460;2024-01-30T04:33:50;11.00;95.20
6536;DHT22;34330;52.08032700;5.40923460;2024-01-30T04:36:18;11.10;95.30
6536;DHT22;34330;52.08032700;5.40923460;2024-01-30T04:38:46;11.00;95.20
6536;DHT22;34330;52.08032700;5.40923460;2024-01-30T04:41:15;11.10;95.50
6536;DHT22;34330;52.08032700;5.40923460;2024-01-30T04:43:43;11.00;95.10
6536;DHT22;34330;52.08032700;5.40923460;2024-01-30T04:46:11;11.10;95.10
6536;DHT22;34330;52.08032700;5.40923460;2024-01-30T04:48:39;11.00;95.10
6536;DHT22;34330;52.08032700;5.40923460;2024-01-30T04:51:07;11.10;95.10
6536;DHT22;34330;52.08032700;5.40923460;2024-01-30T04:53:35;11.10;95.20
6536;DHT22;34330;52.08032700;5.40923460;2024-01-30T04:56:05;11.10;95.20
6536;DHT22;34330;52.08032700;5.40923460;2024-01-30T04:58:34;11.10;95.20
6536;DHT22;34330;52.08032700;5.40923460;2024-01-30T05:01:02;11.10;95.20
6536;DHT22;34330;52.08032700;5.40923460;2024-01-30T05:03:33;11.10;95.20
6536;DHT22;34330;52.08032700;5.40923460;2024-01-30T05:06:01;11.30;95.30
6536;DHT22;34330;52.08032700;5.40923460;2024-01-30T05:08:33;11.30;95.30
6536;DHT22;34330;52.08032700;5.40923460;2024-01-30T05:11:03;11.30;95.40
6536;DHT22;34330;52.08032700;5.40923460;2024-01-30T05:13:31;11.10;95.30
6536;DHT22;34330;52.08032700;5.40923460;2024-01-30T05:16:01;11.10;95.40
6536;DHT22;34330;52.08032700;5.40923460;2024-01-30T05:18:31;11.10;95.40
6536;DHT22;34330;52.08032700;5.40923460;2024-01-30T05:20:59;11.20;95.70
6536;DHT22;34330;52.08032700;5.40923460;2024-01-30T05:23:27;11.10;95.30
6536;DHT22;34330;52.08032700;5.40923460;2024-01-30T05:25:57;11.10;95.30
6536;DHT22;34330;52.08032700;5.40923460;2024-01-30T05:28:28;11.10;95.20
6536;DHT22;34330;52.08032700;5.40923460;2024-01-30T05:31:00;11.20;95.40
6536;DHT22;34330;52.08032700;5.40923460;2024-01-30T05:33:28;11.10;95.30
6536;DHT22;34330;52.08032700;5.40923460;2024-01-30T05:35:58;11.20;95.40
6536;DHT22;34330;52.08032700;5.40923460;2024-01-30T05:38:26;11.20;95.30
6536;DHT22;34330;52.08032700;5.40923460;2024-01-30T05:40:56;11.20;95.30
6536;DHT22;34330;52.08032700;5.40923460;2024-01-30T05:43:25;11.30;95.40
6536;DHT22;34330;52.08032700;5.40923460;2024-01-30T05:45:53;11.10;95.30
6536;DHT22;34330;52.08032700;5.40923460;2024-01-30T05:48:22;11.20;95.40
6536;DHT22;34330;52.08032700;5.40923460;2024-01-30T05:50:50;11.40;95.50
6536;DHT22;34330;52.08032700;5.40923460;2024-01-30T05:53:19;11.20;95.50
6536;DHT22;34330;52.08032700;5.40923460;2024-01-30T05:55:47;11.20;95.50
6536;DHT22;34330;52.08032700;5.40923460;2024-01-30T05:58:15;11.20;95.50
6536;DHT22;34330;52.08032700;5.40923460;2024-01-30T06:00:43;11.20;95.60
6536;DHT22;34330;52.08032700;5.40923460;2024-01-30T06:03:11;11.20;95.60
6536;DHT22;34330;52.08032700;5.40923460;2024-01-30T06:05:41;11.20;95.60
6536;DHT22;34330;52.08032700;5.40923460;2024-01-30T06:08:08;11.20;95.60
6536;DHT22;34330;52.08032700;5.40923460;2024-01-30T06:10:37;11.90;95.90
6536;DHT22;34330;52.08032700;5.40923460;2024-01-30T06:13:04;11.30;95.70
6536;DHT22;34330;52.08032700;5.40923460;2024-01-30T06:15:31;11.30;95.60
6536;DHT22;34330;52.08032700;5.40923460;2024-01-30T06:18:00;11.30;95.70
6536;DHT22;34330;52.08032700;5.40923460;2024-01-30T06:20:28;11.30;95.70
6536;DHT22;34330;52.08032700;5.40923460;2024-01-30T06:22:59;11.50;95.70
6536;DHT22;34330;52.08032700;5.40923460;2024-01-30T06:25:27;11.30;95.70
6536;DHT22;34330;52.08032700;5.40923460;2024-01-30T06:27:58;11.40;95.70
6536;DHT22;34330;52.08032700;5.40923460;2024-01-30T06:30:26;11.40;95.60
6536;DHT22;34330;52.08032700;5.40923460;2024-01-30T06:32:54;11.40;95.60
6536;DHT22;34330;52.08032700;5.40923460;2024-01-30T06:35:22;11.40;95.60
6536;DHT22;34330;52.08032700;5.40923460;2024-01-30T06:37:50;11.40;95.60
6536;DHT22;34330;52.08032700;5.40923460;2024-01-30T06:40:19;11.40;95.50
6536;DHT22;34330;52.08032700;5.40923460;2024-01-30T06:42:47;11.40;95.60
6536;DHT22;34330;52.08032700;5.40923460;2024-01-30T06:45:15;11.40;95.70
6536;DHT22;34330;52.08032700;5.40923460;2024-01-30T06:47:43;11.40;95.70
6536;DHT22;34330;52.08032700;5.40923460;2024-01-30T06:50:11;11.60;95.90
6536;DHT22;34330;52.08032700;5.40923460;2024-01-30T06:52:39;11.40;95.80
6536;DHT22;34330;52.08032700;5.40923460;2024-01-30T06:55:08;11.40;95.80
6536;DHT22;34330;52.08032700;5.40923460;2024-01-30T06:57:37;11.40;95.90
6536;DHT22;34330;52.08032700;5.40923460;2024-01-30T07:00:06;12.70;96.40
6536;DHT22;34330;52.08032700;5.40923460;2024-01-30T07:02:35;11.50;95.90
6536;DHT22;34330;52.08032700;5.40923460;2024-01-30T07:05:03;11.50;95.90
6536;DHT22;34330;52.08032700;5.40923460;2024-01-30T07:07:31;11.50;96.00
6536;DHT22;34330;52.08032700;5.40923460;2024-01-30T07:09:59;11.50;95.90
6536;DHT22;34330;52.08032700;5.40923460;2024-01-30T07:12:28;11.60;95.90
6536;DHT22;34330;52.08032700;5.40923460;2024-01-30T07:14:59;11.60;96.00
6536;DHT22;34330;52.08032700;5.40923460;2024-01-30T07:17:28;11.60;95.90
6536;DHT22;34330;52.08032700;5.40923460;2024-01-30T07:19:57;11.60;95.80
6536;DHT22;34330;52.08032700;5.40923460;2024-01-30T07:22:25;11.60;95.90
6536;DHT22;34330;52.08032700;5.40923460;2024-01-30T07:24:54;11.60;96.00
6536;DHT22;34330;52.08032700;5.40923460;2024-01-30T07:27:22;11.60;95.80
6536;DHT22;34330;52.08032700;5.40923460;2024-01-30T07:29:52;11.60;95.90
6536;DHT22;34330;52.08032700;5.40923460;2024-01-30T07:32:21;11.60;95.90
6536;DHT22;34330;52.08032700;5.40923460;2024-01-30T07:34:49;11.60;96.00
6536;DHT22;34330;52.08032700;5.40923460;2024-01-30T07:37:32;11.70;96.00
6536;DHT22;34330;52.08032700;5.40923460;2024-01-30T07:40:01;11.70;96.00
6536;DHT22;34330;52.08032700;5.40923460;2024-01-30T07:42:31;11.70;96.10
6536;DHT22;34330;52.08032700;5.40923460;2024-01-30T07:44:58;11.70;96.10
6536;DHT22;34330;52.08032700;5.40923460;2024-01-30T07:47:28;11.70;96.00
6536;DHT22;34330;52.08032700;5.40923460;2024-01-30T07:49:57;11.70;96.10
6536;DHT22;34330;52.08032700;5.40923460;2024-01-30T07:52:25;11.70;96.10
6536;DHT22;34330;52.08032700;5.40923460;2024-01-30T07:54:53;11.80;96.20
6536;DHT22;34330;52.08032700;5.40923460;2024-01-30T07:57:22;11.80;96.20
6536;DHT22;34330;52.08032700;5.40923460;2024-01-30T07:59:50;11.80;96.20
6536;DHT22;34330;52.08032700;5.40923460;2024-01-30T08:02:18;11.80;96.30
6536;DHT22;34330;52.08032700;5.40923460;2024-01-30T08:04:49;12.00;96.40
6536;DHT22;34330;52.08032700;5.40923460;2024-01-30T08:07:17;11.80;96.30
6536;DHT22;34330;52.08032700;5.40923460;2024-01-30T08:09:46;11.90;96.40
6536;DHT22;34330;52.08032700;5.40923460;2024-01-30T08:12:14;11.90;96.50
6536;DHT22;34330;52.08032700;5.40923460;2024-01-30T08:14:42;11.90;96.50
6536;DHT22;34330;52.08032700;5.40923460;2024-01-30T08:17:10;11.90;96.50
6536;DHT22;34330;52.08032700;5.40923460;2024-01-30T08:19:38;12.00;96.60
6536;DHT22;34330;52.08032700;5.40923460;2024-01-30T08:22:07;12.00;96.60
6536;DHT22;34330;52.08032700;5.40923460;2024-01-30T08:24:35;12.10;96.70
6536;DHT22;34330;52.08032700;5.40923460;2024-01-30T08:27:03;12.10;96.70
6536;DHT22;34330;52.08032700;5.40923460;2024-01-30T08:29:32;12.10;96.80
6536;DHT22;34330;52.08032700;5.40923460;2024-01-30T08:32:00;12.10;96.80
6536;DHT22;34330;52.08032700;5.40923460;2024-01-30T08:34:28;11.30;96.50
6536;DHT22;34330;52.08032700;5.40923460;2024-01-30T08:36:59;12.20;96.90
6536;DHT22;34330;52.08032700;5.40923460;2024-01-30T08:39:28;12.30;97.00
6536;DHT22;34330;52.08032700;5.40923460;2024-01-30T08:41:59;12.30;97.00
6536;DHT22;34330;52.08032700;5.40923460;2024-01-30T08:44:27;12.40;97.20
6536;DHT22;34330;52.08032700;5.40923460;2024-01-30T08:46:56;12.40;97.30
6536;DHT22;34330;52.08032700;5.40923460;2024-01-30T08:49:26;12.40;97.30
6536;DHT22;34330;52.08032700;5.40923460;2024-01-30T08:51:54;12.50;97.40
6536;DHT22;34330;52.08032700;5.40923460;2024-01-30T08:54:22;12.60;97.50
6536;DHT22;34330;52.08032700;5.40923460;2024-01-30T08:56:52;12.60;97.60
6536;DHT22;34330;52.08032700;5.40923460;2024-01-30T08:59:20;12.70;97.60
6536;DHT22;34330;52.08032700;5.40923460;2024-01-30T09:01:48;12.70;97.60
6536;DHT22;34330;52.08032700;5.40923460;2024-01-30T09:04:32;12.80;97.80
6536;DHT22;34330;52.08032700;5.40923460;2024-01-30T09:07:00;12.90;97.80
6536;DHT22;34330;52.08032700;5.40923460;2024-01-30T09:09:28;12.80;97.70
6536;DHT22;34330;52.08032700;5.40923460;2024-01-30T09:11:59;13.00;97.80
6536;DHT22;34330;52.08032700;5.40923460;2024-01-30T09:14:31;13.10;97.80
6536;DHT22;34330;52.08032700;5.40923460;2024-01-30T09:16:59;13.10;97.70
6536;DHT22;34330;52.08032700;5.40923460;2024-01-30T09:19:27;13.20;97.50
6536;DHT22;34330;52.08032700;5.40923460;2024-01-30T09:21:56;13.20;97.60
6536;DHT22;34330;52.08032700;5.40923460;2024-01-30T09:24:24;13.30;97.60
6536;DHT22;34330;52.08032700;5.40923460;2024-01-30T09:26:53;13.40;97.60
6536;DHT22;34330;52.08032700;5.40923460;2024-01-30T09:29:22;13.50;97.50
6536;DHT22;34330;52.08032700;5.40923460;2024-01-30T09:31:50;13.50;97.40
6536;DHT22;34330;52.08032700;5.40923460;2024-01-30T09:34:18;13.50;97.30
6536;DHT22;34330;52.08032700;5.40923460;2024-01-30T09:36:47;13.60;97.20
6536;DHT22;34330;52.08032700;5.40923460;2024-01-30T09:39:15;13.60;97.20
6536;DHT22;34330;52.08032700;5.40923460;2024-01-30T09:41:47;13.70;97.10
6536;DHT22;34330;52.08032700;5.40923460;2024-01-30T09:44:16;13.70;97.00
6536;DHT22;34330;52.08032700;5.40923460;2024-01-30T09:46:47;14.80;97.40
6536;DHT22;34330;52.08032700;5.40923460;2024-01-30T09:49:17;13.80;96.80
6536;DHT22;34330;52.08032700;5.40923460;2024-01-30T09:51:48;13.80;96.80
6536;DHT22;34330;52.08032700;5.40923460;2024-01-30T09:54:17;13.80;96.80
6536;DHT22;34330;52.08032700;5.40923460;2024-01-30T09:56:47;13.80;96.80
6536;DHT22;34330;52.08032700;5.40923460;2024-01-30T09:59:15;13.90;96.70
6536;DHT22;34330;52.08032700;5.40923460;2024-01-30T10:01:43;13.90;96.70
6536;DHT22;34330;52.08032700;5.40923460;2024-01-30T10:04:13;13.90;96.60
6536;DHT22;34330;52.08032700;5.40923460;2024-01-30T10:06:42;13.90;96.60
6536;DHT22;34330;52.08032700;5.40923460;2024-01-30T10:09:10;13.90;96.60
6536;DHT22;34330;52.08032700;5.40923460;2024-01-30T10:11:38;14.00;96.60
6536;DHT22;34330;52.08032700;5.40923460;2024-01-30T10:14:06;14.00;96.50
6536;DHT22;34330;52.08032700;5.40923460;2024-01-30T10:16:34;14.00;96.50
6536;DHT22;34330;52.08032700;5.40923460;2024-01-30T10:19:02;14.00;96.40
6536;DHT22;34330;52.08032700;5.40923460;2024-01-30T10:21:32;14.00;96.30
6536;DHT22;34330;52.08032700;5.40923460;2024-01-30T10:24:00;14.10;96.40
6536;DHT22;34330;52.08032700;5.40923460;2024-01-30T10:26:27;14.10;96.40
6536;DHT22;34330;52.08032700;5.40923460;2024-01-30T10:29:00;14.10;96.40
6536;DHT22;34330;52.08032700;5.40923460;2024-01-30T10:31:30;14.10;96.40
6536;DHT22;34330;52.08032700;5.40923460;2024-01-30T10:33:58;14.20;96.50
6536;DHT22;34330;52.08032700;5.40923460;2024-01-30T10:36:46;14.20;96.40
6536;DHT22;34330;52.08032700;5.40923460;2024-01-30T10:39:18;14.20;96.40
6536;DHT22;34330;52.08032700;5.40923460;2024-01-30T10:41:47;14.30;96.50
6536;DHT22;34330;52.08032700;5.40923460;2024-01-30T10:44:19;14.30;96.40
6536;DHT22;34330;52.08032700;5.40923460;2024-01-30T10:46:56;14.40;96.40
6536;DHT22;34330;52.08032700;5.40923460;2024-01-30T10:49:24;14.40;96.30
6536;DHT22;34330;52.08032700;5.40923460;2024-01-30T10:51:54;14.50;96.20
6536;DHT22;34330;52.08032700;5.40923460;2024-01-30T10:54:24;14.50;96.10
6536;DHT22;34330;52.08032700;5.40923460;2024-01-30T10:56:53;14.60;96.00
6536;DHT22;34330;52.08032700;5.40923460;2024-01-30T10:59:23;14.60;95.90
6536;DHT22;34330;52.08032700;5.40923460;2024-01-30T11:01:52;14.60;95.80
6536;DHT22;34330;52.08032700;5.40923460;2024-01-30T11:04:20;14.60;95.80
6536;DHT22;34330;52.08032700;5.40923460;2024-01-30T11:06:50;14.60;95.70
6536;DHT22;34330;52.08032700;5.40923460;2024-01-30T11:09:19;14.60;95.70
6536;DHT22;34330;52.08032700;5.40923460;2024-01-30T11:11:49;14.60;95.60
6536;DHT22;34330;52.08032700;5.40923460;2024-01-30T11:14:23;14.60;95.60
6536;DHT22;34330;52.08032700;5.40923460;2024-01-30T11:16:51;14.60;95.50
6536;DHT22;34330;52.08032700;5.40923460;2024-01-30T11:19:23;14.70;95.50
6536;DHT22;34330;52.08032700;5.40923460;2024-01-30T11:21:52;14.60;95.40
6536;DHT22;34330;52.08032700;5.40923460;2024-01-30T11:24:23;14.60;95.40
6536;DHT22;34330;52.08032700;5.40923460;2024-01-30T11:26:56;14.60;95.30
6536;DHT22;34330;52.08032700;5.40923460;2024-01-30T11:29:24;14.60;95.10
6536;DHT22;34330;52.08032700;5.40923460;2024-01-30T11:31:53;14.60;94.90
6536;DHT22;34330;52.08032700;5.40923460;2024-01-30T11:34:21;14.70;94.70
6536;DHT22;34330;52.08032700;5.40923460;2024-01-30T11:36:52;14.60;94.60
6536;DHT22;34330;52.08032700;5.40923460;2024-01-30T11:39:28;14.60;94.70
6536;DHT22;34330;52.08032700;5.40923460;2024-01-30T11:41:59;14.60;94.50
6536;DHT22;34330;52.08032700;5.40923460;2024-01-30T11:44:27;14.60;94.30
6536;DHT22;34330;52.08032700;5.40923460;2024-01-30T11:46:56;14.70;94.30
6536;DHT22;34330;52.08032700;5.40923460;2024-01-30T11:49:24;14.50;94.10
6536;DHT22;34330;52.08032700;5.40923460;2024-01-30T11:51:52;14.50;93.80
6536;DHT22;34330;52.08032700;5.40923460;2024-01-30T11:54:20;14.50;93.80
6536;DHT22;34330;52.08032700;5.40923460;2024-01-30T11:56:50;14.50;93.80
6536;DHT22;34330;52.08032700;5.40923460;2024-01-30T11:59:18;14.50;93.70
6536;DHT22;34330;52.08032700;5.40923460;2024-01-30T12:01:46;14.40;93.60
6536;DHT22;34330;52.08032700;5.40923460;2024-01-30T12:04:15;14.40;93.50
6536;DHT22;34330;52.08032700;5.40923460;2024-01-30T12:06:43;14.40;93.50
6536;DHT22;34330;52.08032700;5.40923460;2024-01-30T12:09:11;14.40;93.60
6536;DHT22;34330;52.08032700;5.40923460;2024-01-30T12:11:46;14.40;93.70
6536;DHT22;34330;52.08032700;5.40923460;2024-01-30T12:14:16;14.50;93.50
6536;DHT22;34330;52.08032700;5.40923460;2024-01-30T12:16:48;14.30;93.50
6536;DHT22;34330;52.08032700;5.40923460;2024-01-30T12:19:23;14.30;93.40
6536;DHT22;34330;52.08032700;5.40923460;2024-01-30T12:21:55;14.30;93.20
6536;DHT22;34330;52.08032700;5.40923460;2024-01-30T12:24:26;14.30;92.70
6536;DHT22;34330;52.08032700;5.40923460;2024-01-30T12:26:57;14.30;92.60
6536;DHT22;34330;52.08032700;5.40923460;2024-01-30T12:29:26;14.20;92.40
6536;DHT22;34330;52.08032700;5.40923460;2024-01-30T12:32:01;14.10;92.40
6536;DHT22;34330;52.08032700;5.40923460;2024-01-30T12:34:30;14.10;92.30
6536;DHT22;34330;52.08032700;5.40923460;2024-01-30T12:37:04;15.20;92.90
6536;DHT22;34330;52.08032700;5.40923460;2024-01-30T12:39:35;13.90;92.30
6536;DHT22;34330;52.08032700;5.40923460;2024-01-30T12:42:04;13.90;92.40
6536;DHT22;34330;52.08032700;5.40923460;2024-01-30T12:44:33;13.80;92.40
6536;DHT22;34330;52.08032700;5.40923460;2024-01-30T12:47:03;13.70;92.40
6536;DHT22;34330;52.08032700;5.40923460;2024-01-30T12:49:31;13.70;92.40
6536;DHT22;34330;52.08032700;5.40923460;2024-01-30T12:51:59;13.60;92.70
6536;DHT22;34330;52.08032700;5.40923460;2024-01-30T12:54:27;13.50;92.30
6536;DHT22;34330;52.08032700;5.40923460;2024-01-30T12:56:55;13.50;92.40
6536;DHT22;34330;52.08032700;5.40923460;2024-01-30T12:59:24;13.40;92.40
6536;DHT22;34330;52.08032700;5.40923460;2024-01-30T13:01:54;13.40;92.40
6536;DHT22;34330;52.08032700;5.40923460;2024-01-30T13:04:22;13.30;92.20
6536;DHT22;34330;52.08032700;5.40923460;2024-01-30T13:06:50;13.30;92.40
6536;DHT22;34330;52.08032700;5.40923460;2024-01-30T13:09:18;13.20;92.40
6536;DHT22;34330;52.08032700;5.40923460;2024-01-30T13:11:47;13.20;92.50
6536;DHT22;34330;52.08032700;5.40923460;2024-01-30T13:14:17;13.20;92.50
6536;DHT22;34330;52.08032700;5.40923460;2024-01-30T13:16:45;13.10;92.90
6536;DHT22;34330;52.08032700;5.40923460;2024-01-30T13:19:17;13.10;92.70
6536;DHT22;34330;52.08032700;5.40923460;2024-01-30T13:21:45;13.10;92.70
6536;DHT22;34330;52.08032700;5.40923460;2024-01-30T13:24:14;13.10;92.70
6536;DHT22;34330;52.08032700;5.40923460;2024-01-30T13:26:42;13.10;92.70
6536;DHT22;34330;52.08032700;5.40923460;2024-01-30T13:29:11;13.10;92.70
6536;DHT22;34330;52.08032700;5.40923460;2024-01-30T13:31:39;13.10;92.70
6536;DHT22;34330;52.08032700;5.40923460;2024-01-30T13:34:07;13.10;92.80
6536;DHT22;34330;52.08032700;5.40923460;2024-01-30T13:36:36;13.10;92.90
6536;DHT22;34330;52.08032700;5.40923460;2024-01-30T13:39:04;13.10;92.90
6536;DHT22;34330;52.08032700;5.40923460;2024-01-30T13:41:38;13.00;92.80
6536;DHT22;34330;52.08032700;5.40923460;2024-01-30T13:44:06;13.10;93.00